Weather at Kamenskoye Heliport

Public forecast

Using degrees Celsius for public forecast. Weather courtesy of forecast.io.

Closest aviation weather report (METAR) to Kamenskoye Heliport

Report is more than 6 hours old.

Closest report is Provideniya Bay Airport, 561.6 nm (1,040.1 km) ENE. Retrieved 2021/06/18 06:00 UTC (2 days ago):

UHMD 180600Z 22002MPS 2500 BCFG NSC 04/01 Q1019 RMK QFE763/1018

Closest aviation forecast (TAF) to Kamenskoye Heliport

Forecast is more than 12 hours old.

Closest forecast is Severo-Evensk Airport, 197.7 nm (366.1 km) W. Retrieved 2013/05/23 03:00 UTC (8 years ago):

TAF UHMW 230130Z 2303/2309 22004MPS 9999 NSC